sensor_id;sensor_type;location;lat;lon;timestamp;P1;durP1;ratioP1;P2;durP2;ratioP2
31676;SDS011;18385;51.572;6.578;2024-03-23T00:54:16;7.15;;;0.98;;
31676;SDS011;18385;51.572;6.578;2024-03-23T00:56:41;6.20;;;0.85;;
31676;SDS011;18385;51.572;6.578;2024-03-23T00:59:07;5.13;;;0.98;;
31676;SDS011;18385;51.572;6.578;2024-03-23T01:01:33;4.68;;;1.00;;
31676;SDS011;18385;51.572;6.578;2024-03-23T01:03:58;8.05;;;1.05;;
31676;SDS011;18385;51.572;6.578;2024-03-23T01:06:24;5.72;;;1.00;;
31676;SDS011;18385;51.572;6.578;2024-03-23T01:08:50;5.80;;;0.70;;
31676;SDS011;18385;51.572;6.578;2024-03-23T01:11:15;9.15;;;0.90;;
31676;SDS011;18385;51.572;6.578;2024-03-23T01:13:41;5.63;;;0.65;;
31676;SDS011;18385;51.572;6.578;2024-03-23T01:16:07;9.25;;;0.52;;
31676;SDS011;18385;51.572;6.578;2024-03-23T01:18:32;5.43;;;1.48;;
31676;SDS011;18385;51.572;6.578;2024-03-23T01:20:58;4.88;;;0.65;;
31676;SDS011;18385;51.572;6.578;2024-03-23T01:23:23;4.22;;;1.10;;
31676;SDS011;18385;51.572;6.578;2024-03-23T01:25:52;8.40;;;1.25;;
31676;SDS011;18385;51.572;6.578;2024-03-23T01:28:19;4.28;;;0.63;;
31676;SDS011;18385;51.572;6.578;2024-03-23T01:30:45;4.55;;;0.80;;
31676;SDS011;18385;51.572;6.578;2024-03-23T01:33:11;7.43;;;0.98;;
31676;SDS011;18385;51.572;6.578;2024-03-23T01:35:37;4.45;;;0.60;;
31676;SDS011;18385;51.572;6.578;2024-03-23T01:38:03;6.28;;;0.88;;
31676;SDS011;18385;51.572;6.578;2024-03-23T01:40:29;7.90;;;1.00;;
31676;SDS011;18385;51.572;6.578;2024-03-23T01:45:23;7.90;;;1.10;;
31676;SDS011;18385;51.572;6.578;2024-03-23T01:47:52;5.22;;;1.42;;
31676;SDS011;18385;51.572;6.578;2024-03-23T01:50:18;8.73;;;0.90;;
31676;SDS011;18385;51.572;6.578;2024-03-23T01:52:48;3.88;;;0.65;;
31676;SDS011;18385;51.572;6.578;2024-03-23T01:55:13;2.63;;;0.60;;
31676;SDS011;18385;51.572;6.578;2024-03-23T01:57:39;6.45;;;0.63;;
31676;SDS011;18385;51.572;6.578;2024-03-23T02:00:05;3.70;;;0.90;;
31676;SDS011;18385;51.572;6.578;2024-03-23T02:02:41;6.40;;;0.95;;
31676;SDS011;18385;51.572;6.578;2024-03-23T02:05:08;9.68;;;1.95;;
31676;SDS011;18385;51.572;6.578;2024-03-23T02:07:34;9.38;;;1.00;;
31676;SDS011;18385;51.572;6.578;2024-03-23T02:10:00;5.68;;;1.10;;
31676;SDS011;18385;51.572;6.578;2024-03-23T02:12:26;8.32;;;1.10;;
31676;SDS011;18385;51.572;6.578;2024-03-23T02:14:51;6.55;;;1.05;;
31676;SDS011;18385;51.572;6.578;2024-03-23T02:17:17;14.48;;;1.48;;
31676;SDS011;18385;51.572;6.578;2024-03-23T02:19:43;9.35;;;1.75;;
31676;SDS011;18385;51.572;6.578;2024-03-23T02:22:08;4.97;;;1.30;;
31676;SDS011;18385;51.572;6.578;2024-03-23T02:24:37;5.47;;;1.00;;
31676;SDS011;18385;51.572;6.578;2024-03-23T02:27:02;3.10;;;0.70;;
31676;SDS011;18385;51.572;6.578;2024-03-23T02:29:28;8.70;;;1.00;;
31676;SDS011;18385;51.572;6.578;2024-03-23T02:31:54;6.10;;;1.23;;
31676;SDS011;18385;51.572;6.578;2024-03-23T02:34:19;16.27;;;1.67;;
31676;SDS011;18385;51.572;6.578;2024-03-23T02:36:45;7.45;;;1.50;;
31676;SDS011;18385;51.572;6.578;2024-03-23T02:39:10;8.95;;;1.17;;
31676;SDS011;18385;51.572;6.578;2024-03-23T02:41:37;9.02;;;1.55;;
31676;SDS011;18385;51.572;6.578;2024-03-23T02:44:02;6.35;;;0.90;;
31676;SDS011;18385;51.572;6.578;2024-03-23T02:46:28;4.90;;;1.20;;
31676;SDS011;18385;51.572;6.578;2024-03-23T02:48:53;7.38;;;1.30;;
31676;SDS011;18385;51.572;6.578;2024-03-23T02:51:19;6.85;;;1.15;;
31676;SDS011;18385;51.572;6.578;2024-03-23T02:53:44;7.32;;;1.25;;
31676;SDS011;18385;51.572;6.578;2024-03-23T02:56:10;6.18;;;0.70;;
31676;SDS011;18385;51.572;6.578;2024-03-23T02:58:40;7.38;;;1.27;;
31676;SDS011;18385;51.572;6.578;2024-03-23T03:01:06;7.85;;;1.13;;
31676;SDS011;18385;51.572;6.578;2024-03-23T03:03:32;9.93;;;1.20;;
31676;SDS011;18385;51.572;6.578;2024-03-23T03:05:58;5.30;;;1.25;;
31676;SDS011;18385;51.572;6.578;2024-03-23T03:08:23;8.77;;;1.58;;
31676;SDS011;18385;51.572;6.578;2024-03-23T03:10:49;5.88;;;1.20;;
31676;SDS011;18385;51.572;6.578;2024-03-23T03:13:14;7.25;;;1.27;;
31676;SDS011;18385;51.572;6.578;2024-03-23T03:15:41;13.10;;;2.50;;
31676;SDS011;18385;51.572;6.578;2024-03-23T03:18:08;7.10;;;1.08;;
31676;SDS011;18385;51.572;6.578;2024-03-23T03:20:33;9.00;;;1.13;;
31676;SDS011;18385;51.572;6.578;2024-03-23T03:22:59;7.53;;;1.00;;
31676;SDS011;18385;51.572;6.578;2024-03-23T03:25:25;10.60;;;2.05;;
31676;SDS011;18385;51.572;6.578;2024-03-23T03:27:51;7.70;;;1.23;;
31676;SDS011;18385;51.572;6.578;2024-03-23T03:30:16;4.55;;;0.65;;
31676;SDS011;18385;51.572;6.578;2024-03-23T03:32:42;6.40;;;0.90;;
31676;SDS011;18385;51.572;6.578;2024-03-23T03:35:08;9.32;;;2.10;;
31676;SDS011;18385;51.572;6.578;2024-03-23T03:37:34;8.00;;;1.27;;
31676;SDS011;18385;51.572;6.578;2024-03-23T03:39:59;7.10;;;1.23;;
31676;SDS011;18385;51.572;6.578;2024-03-23T03:42:25;6.15;;;1.17;;
31676;SDS011;18385;51.572;6.578;2024-03-23T03:44:50;8.93;;;1.33;;
31676;SDS011;18385;51.572;6.578;2024-03-23T03:47:17;5.95;;;1.30;;
31676;SDS011;18385;51.572;6.578;2024-03-23T03:49:43;14.68;;;1.42;;
31676;SDS011;18385;51.572;6.578;2024-03-23T03:52:09;7.97;;;1.60;;
31676;SDS011;18385;51.572;6.578;2024-03-23T03:54:34;8.15;;;1.85;;
31676;SDS011;18385;51.572;6.578;2024-03-23T03:57:00;6.15;;;1.30;;
31676;SDS011;18385;51.572;6.578;2024-03-23T03:59:26;11.05;;;1.58;;
31676;SDS011;18385;51.572;6.578;2024-03-23T04:01:51;5.70;;;1.45;;
31676;SDS011;18385;51.572;6.578;2024-03-23T04:04:17;7.65;;;1.58;;
31676;SDS011;18385;51.572;6.578;2024-03-23T04:06:43;9.30;;;1.42;;
31676;SDS011;18385;51.572;6.578;2024-03-23T04:09:09;5.13;;;1.58;;
31676;SDS011;18385;51.572;6.578;2024-03-23T04:11:35;12.88;;;1.70;;
31676;SDS011;18385;51.572;6.578;2024-03-23T04:14:01;9.02;;;1.85;;
31676;SDS011;18385;51.572;6.578;2024-03-23T04:16:27;9.70;;;1.88;;
31676;SDS011;18385;51.572;6.578;2024-03-23T04:18:53;8.02;;;1.77;;
31676;SDS011;18385;51.572;6.578;2024-03-23T04:21:19;9.48;;;2.65;;
31676;SDS011;18385;51.572;6.578;2024-03-23T04:23:45;6.90;;;2.15;;
31676;SDS011;18385;51.572;6.578;2024-03-23T04:26:11;13.98;;;2.33;;
31676;SDS011;18385;51.572;6.578;2024-03-23T04:28:36;6.90;;;1.83;;
31676;SDS011;18385;51.572;6.578;2024-03-23T04:31:05;12.32;;;2.70;;
31676;SDS011;18385;51.572;6.578;2024-03-23T04:33:31;8.97;;;1.80;;
31676;SDS011;18385;51.572;6.578;2024-03-23T04:35:56;5.80;;;1.98;;
31676;SDS011;18385;51.572;6.578;2024-03-23T04:38:22;11.80;;;2.63;;
31676;SDS011;18385;51.572;6.578;2024-03-23T04:40:57;8.43;;;2.00;;
31676;SDS011;18385;51.572;6.578;2024-03-23T04:43:25;12.27;;;2.65;;
31676;SDS011;18385;51.572;6.578;2024-03-23T04:45:51;9.15;;;1.92;;
31676;SDS011;18385;51.572;6.578;2024-03-23T04:48:19;12.80;;;2.60;;
31676;SDS011;18385;51.572;6.578;2024-03-23T04:50:47;9.60;;;2.20;;
31676;SDS011;18385;51.572;6.578;2024-03-23T04:53:14;14.23;;;2.95;;
31676;SDS011;18385;51.572;6.578;2024-03-23T04:55:40;10.98;;;2.60;;
31676;SDS011;18385;51.572;6.578;2024-03-23T04:58:07;9.55;;;3.33;;
31676;SDS011;18385;51.572;6.578;2024-03-23T05:00:33;10.10;;;2.50;;
31676;SDS011;18385;51.572;6.578;2024-03-23T05:02:59;6.60;;;3.40;;
31676;SDS011;18385;51.572;6.578;2024-03-23T05:05:24;13.35;;;2.22;;
31676;SDS011;18385;51.572;6.578;2024-03-23T05:07:50;9.13;;;3.03;;
31676;SDS011;18385;51.572;6.578;2024-03-23T05:10:16;17.75;;;3.95;;
31676;SDS011;18385;51.572;6.578;2024-03-23T05:12:41;9.95;;;2.38;;
31676;SDS011;18385;51.572;6.578;2024-03-23T05:15:07;7.22;;;3.08;;
31676;SDS011;18385;51.572;6.578;2024-03-23T05:17:33;11.80;;;3.15;;
31676;SDS011;18385;51.572;6.578;2024-03-23T05:19:59;8.77;;;2.22;;
31676;SDS011;18385;51.572;6.578;2024-03-23T05:22:25;6.90;;;2.65;;
31676;SDS011;18385;51.572;6.578;2024-03-23T05:24:52;10.05;;;2.85;;
31676;SDS011;18385;51.572;6.578;2024-03-23T05:27:18;11.93;;;3.25;;
31676;SDS011;18385;51.572;6.578;2024-03-23T05:29:44;12.60;;;2.92;;
31676;SDS011;18385;51.572;6.578;2024-03-23T05:32:09;12.88;;;3.47;;
31676;SDS011;18385;51.572;6.578;2024-03-23T05:34:35;7.88;;;2.65;;
31676;SDS011;18385;51.572;6.578;2024-03-23T05:37:01;8.95;;;3.72;;
31676;SDS011;18385;51.572;6.578;2024-03-23T05:39:26;7.03;;;2.83;;
31676;SDS011;18385;51.572;6.578;2024-03-23T05:41:52;6.53;;;2.70;;
31676;SDS011;18385;51.572;6.578;2024-03-23T05:44:18;8.90;;;2.58;;
31676;SDS011;18385;51.572;6.578;2024-03-23T05:46:43;11.73;;;2.90;;
31676;SDS011;18385;51.572;6.578;2024-03-23T05:49:13;11.73;;;1.85;;
31676;SDS011;18385;51.572;6.578;2024-03-23T05:51:40;8.20;;;2.38;;
31676;SDS011;18385;51.572;6.578;2024-03-23T05:54:06;11.60;;;3.00;;
31676;SDS011;18385;51.572;6.578;2024-03-23T05:56:31;8.70;;;2.42;;
31676;SDS011;18385;51.572;6.578;2024-03-23T05:58:57;13.15;;;3.10;;
31676;SDS011;18385;51.572;6.578;2024-03-23T06:01:22;10.00;;;2.50;;
31676;SDS011;18385;51.572;6.578;2024-03-23T06:03:48;10.35;;;2.88;;
31676;SDS011;18385;51.572;6.578;2024-03-23T06:06:14;14.57;;;2.63;;
31676;SDS011;18385;51.572;6.578;2024-03-23T06:08:39;14.90;;;2.13;;
31676;SDS011;18385;51.572;6.578;2024-03-23T06:11:06;12.73;;;2.72;;
31676;SDS011;18385;51.572;6.578;2024-03-23T06:13:32;9.25;;;2.97;;
31676;SDS011;18385;51.572;6.578;2024-03-23T06:15:59;14.63;;;3.30;;
31676;SDS011;18385;51.572;6.578;2024-03-23T06:18:25;9.73;;;2.45;;
31676;SDS011;18385;51.572;6.578;2024-03-23T06:20:51;7.40;;;1.77;;
31676;SDS011;18385;51.572;6.578;2024-03-23T06:23:17;10.43;;;2.20;;
31676;SDS011;18385;51.572;6.578;2024-03-23T06:25:45;9.57;;;2.65;;
31676;SDS011;18385;51.572;6.578;2024-03-23T06:28:11;7.65;;;2.53;;
31676;SDS011;18385;51.572;6.578;2024-03-23T06:30:36;8.77;;;2.17;;
31676;SDS011;18385;51.572;6.578;2024-03-23T06:33:02;7.78;;;2.10;;
31676;SDS011;18385;51.572;6.578;2024-03-23T06:35:28;12.90;;;2.25;;
31676;SDS011;18385;51.572;6.578;2024-03-23T06:37:54;17.13;;;3.50;;
31676;SDS011;18385;51.572;6.578;2024-03-23T06:40:19;10.85;;;2.50;;
31676;SDS011;18385;51.572;6.578;2024-03-23T06:42:45;9.35;;;2.85;;
31676;SDS011;18385;51.572;6.578;2024-03-23T06:45:11;6.85;;;2.20;;
31676;SDS011;18385;51.572;6.578;2024-03-23T06:47:36;9.90;;;2.78;;
31676;SDS011;18385;51.572;6.578;2024-03-23T06:50:03;10.85;;;3.00;;
31676;SDS011;18385;51.572;6.578;2024-03-23T06:52:29;11.75;;;3.15;;
31676;SDS011;18385;51.572;6.578;2024-03-23T06:54:55;7.22;;;2.85;;
31676;SDS011;18385;51.572;6.578;2024-03-23T06:57:22;8.50;;;3.67;;
31676;SDS011;18385;51.572;6.578;2024-03-23T06:59:47;13.90;;;3.17;;
31676;SDS011;18385;51.572;6.578;2024-03-23T07:02:13;14.70;;;3.35;;
31676;SDS011;18385;51.572;6.578;2024-03-23T07:04:39;15.18;;;4.25;;
31676;SDS011;18385;51.572;6.578;2024-03-23T07:07:05;11.57;;;3.38;;
31676;SDS011;18385;51.572;6.578;2024-03-23T07:09:31;7.40;;;2.80;;
31676;SDS011;18385;51.572;6.578;2024-03-23T07:11:57;10.32;;;4.50;;
31676;SDS011;18385;51.572;6.578;2024-03-23T07:14:23;14.75;;;3.78;;
31676;SDS011;18385;51.572;6.578;2024-03-23T07:16:49;10.18;;;3.35;;
31676;SDS011;18385;51.572;6.578;2024-03-23T07:19:15;13.95;;;3.88;;
31676;SDS011;18385;51.572;6.578;2024-03-23T07:21:41;10.85;;;3.50;;
31676;SDS011;18385;51.572;6.578;2024-03-23T07:24:08;8.57;;;2.72;;
31676;SDS011;18385;51.572;6.578;2024-03-23T07:26:34;16.05;;;4.63;;
31676;SDS011;18385;51.572;6.578;2024-03-23T07:28:59;14.50;;;3.30;;
31676;SDS011;18385;51.572;6.578;2024-03-23T07:31:25;12.65;;;3.45;;
31676;SDS011;18385;51.572;6.578;2024-03-23T07:33:50;11.07;;;3.38;;
31676;SDS011;18385;51.572;6.578;2024-03-23T07:36:16;12.52;;;3.50;;
31676;SDS011;18385;51.572;6.578;2024-03-23T07:38:42;11.30;;;3.33;;
31676;SDS011;18385;51.572;6.578;2024-03-23T07:41:12;15.73;;;3.17;;
31676;SDS011;18385;51.572;6.578;2024-03-23T07:43:45;14.27;;;4.22;;
31676;SDS011;18385;51.572;6.578;2024-03-23T07:46:12;14.65;;;3.38;;
31676;SDS011;18385;51.572;6.578;2024-03-23T07:48:38;10.98;;;2.80;;
31676;SDS011;18385;51.572;6.578;2024-03-23T07:51:05;11.90;;;2.75;;
31676;SDS011;18385;51.572;6.578;2024-03-23T07:53:33;12.85;;;2.95;;
31676;SDS011;18385;51.572;6.578;2024-03-23T07:56:00;9.32;;;3.13;;
31676;SDS011;18385;51.572;6.578;2024-03-23T07:58:28;8.98;;;2.60;;
31676;SDS011;18385;51.572;6.578;2024-03-23T08:00:54;13.07;;;3.78;;
31676;SDS011;18385;51.572;6.578;2024-03-23T08:03:20;10.02;;;2.38;;
31676;SDS011;18385;51.572;6.578;2024-03-23T08:05:46;8.30;;;2.65;;
31676;SDS011;18385;51.572;6.578;2024-03-23T08:08:12;12.25;;;2.42;;
31676;SDS011;18385;51.572;6.578;2024-03-23T08:10:48;8.40;;;2.58;;
31676;SDS011;18385;51.572;6.578;2024-03-23T08:13:18;11.02;;;2.22;;
31676;SDS011;18385;51.572;6.578;2024-03-23T08:15:44;12.90;;;2.30;;
31676;SDS011;18385;51.572;6.578;2024-03-23T08:18:11;9.35;;;2.63;;
31676;SDS011;18385;51.572;6.578;2024-03-23T08:20:37;18.35;;;2.58;;
31676;SDS011;18385;51.572;6.578;2024-03-23T08:23:04;9.55;;;1.98;;
31676;SDS011;18385;51.572;6.578;2024-03-23T08:25:31;9.95;;;2.72;;
31676;SDS011;18385;51.572;6.578;2024-03-23T08:27:57;9.85;;;1.58;;
31676;SDS011;18385;51.572;6.578;2024-03-23T08:30:23;8.13;;;1.75;;
31676;SDS011;18385;51.572;6.578;2024-03-23T08:32:49;10.48;;;1.77;;
31676;SDS011;18385;51.572;6.578;2024-03-23T08:35:14;7.88;;;1.85;;
31676;SDS011;18385;51.572;6.578;2024-03-23T08:37:40;12.32;;;1.98;;
31676;SDS011;18385;51.572;6.578;2024-03-23T08:40:06;10.25;;;2.53;;
31676;SDS011;18385;51.572;6.578;2024-03-23T08:42:33;11.52;;;1.70;;
31676;SDS011;18385;51.572;6.578;2024-03-23T08:44:59;7.70;;;2.25;;
31676;SDS011;18385;51.572;6.578;2024-03-23T08:47:25;9.48;;;1.83;;
31676;SDS011;18385;51.572;6.578;2024-03-23T08:49:51;8.07;;;1.40;;
31676;SDS011;18385;51.572;6.578;2024-03-23T08:52:16;9.88;;;2.10;;
31676;SDS011;18385;51.572;6.578;2024-03-23T08:54:42;10.60;;;1.75;;
31676;SDS011;18385;51.572;6.578;2024-03-23T08:57:08;7.13;;;2.00;;
31676;SDS011;18385;51.572;6.578;2024-03-23T08:59:34;8.48;;;1.65;;
31676;SDS011;18385;51.572;6.578;2024-03-23T09:01:59;7.18;;;1.38;;
31676;SDS011;18385;51.572;6.578;2024-03-23T09:04:25;10.40;;;2.25;;
31676;SDS011;18385;51.572;6.578;2024-03-23T09:06:51;5.85;;;1.85;;
31676;SDS011;18385;51.572;6.578;2024-03-23T09:09:19;9.10;;;2.47;;
31676;SDS011;18385;51.572;6.578;2024-03-23T09:11:45;7.90;;;1.65;;
31676;SDS011;18385;51.572;6.578;2024-03-23T09:14:11;11.38;;;1.83;;
31676;SDS011;18385;51.572;6.578;2024-03-23T09:16:37;5.75;;;1.50;;
31676;SDS011;18385;51.572;6.578;2024-03-23T09:19:02;11.55;;;1.98;;
31676;SDS011;18385;51.572;6.578;2024-03-23T09:21:28;8.90;;;2.15;;
31676;SDS011;18385;51.572;6.578;2024-03-23T09:23:54;9.57;;;1.65;;
31676;SDS011;18385;51.572;6.578;2024-03-23T09:26:20;7.82;;;1.52;;
31676;SDS011;18385;51.572;6.578;2024-03-23T09:28:48;9.02;;;1.80;;
31676;SDS011;18385;51.572;6.578;2024-03-23T09:31:14;8.05;;;1.15;;
31676;SDS011;18385;51.572;6.578;2024-03-23T09:33:40;2.22;;;0.85;;
31676;SDS011;18385;51.572;6.578;2024-03-23T09:36:06;6.30;;;1.58;;
31676;SDS011;18385;51.572;6.578;2024-03-23T09:38:33;4.32;;;1.20;;
31676;SDS011;18385;51.572;6.578;2024-03-23T09:40:59;5.18;;;0.80;;
31676;SDS011;18385;51.572;6.578;2024-03-23T09:43:26;9.35;;;2.33;;
31676;SDS011;18385;51.572;6.578;2024-03-23T09:45:52;6.13;;;1.20;;
31676;SDS011;18385;51.572;6.578;2024-03-23T09:48:18;6.30;;;0.88;;
31676;SDS011;18385;51.572;6.578;2024-03-23T09:50:44;5.47;;;1.10;;
31676;SDS011;18385;51.572;6.578;2024-03-23T09:53:11;7.50;;;1.13;;
31676;SDS011;18385;51.572;6.578;2024-03-23T09:55:42;6.65;;;1.45;;
31676;SDS011;18385;51.572;6.578;2024-03-23T09:58:12;5.60;;;1.38;;
31676;SDS011;18385;51.572;6.578;2024-03-23T10:00:39;5.68;;;1.77;;
31676;SDS011;18385;51.572;6.578;2024-03-23T10:03:05;6.30;;;0.93;;
31676;SDS011;18385;51.572;6.578;2024-03-23T10:05:31;6.88;;;0.90;;
31676;SDS011;18385;51.572;6.578;2024-03-23T10:08:00;8.30;;;1.20;;
31676;SDS011;18385;51.572;6.578;2024-03-23T10:10:42;7.03;;;1.02;;
31676;SDS011;18385;51.572;6.578;2024-03-23T10:13:08;5.35;;;1.40;;
31676;SDS011;18385;51.572;6.578;2024-03-23T10:15:34;5.00;;;0.70;;
31676;SDS011;18385;51.572;6.578;2024-03-23T10:18:19;3.50;;;1.13;;
31676;SDS011;18385;51.572;6.578;2024-03-23T10:21:08;3.38;;;0.85;;
31676;SDS011;18385;51.572;6.578;2024-03-23T10:23:33;9.35;;;0.98;;
31676;SDS011;18385;51.572;6.578;2024-03-23T10:28:50;3.78;;;0.88;;
31676;SDS011;18385;51.572;6.578;2024-03-23T10:31:16;5.47;;;1.20;;
31676;SDS011;18385;51.572;6.578;2024-03-23T10:33:46;7.53;;;1.50;;
31676;SDS011;18385;51.572;6.578;2024-03-23T10:36:13;7.82;;;1.17;;
31676;SDS011;18385;51.572;6.578;2024-03-23T10:38:42;5.07;;;0.75;;
31676;SDS011;18385;51.572;6.578;2024-03-23T10:41:09;3.45;;;0.88;;
31676;SDS011;18385;51.572;6.578;2024-03-23T10:43:36;5.38;;;1.00;;
31676;SDS011;18385;51.572;6.578;2024-03-23T10:46:03;4.72;;;0.95;;
31676;SDS011;18385;51.572;6.578;2024-03-23T10:48:29;3.15;;;0.60;;
31676;SDS011;18385;51.572;6.578;2024-03-23T10:50:55;1.38;;;0.32;;
31676;SDS011;18385;51.572;6.578;2024-03-23T10:53:27;1.05;;;0.28;;
31676;SDS011;18385;51.572;6.578;2024-03-23T10:55:54;1.13;;;0.40;;
31676;SDS011;18385;51.572;6.578;2024-03-23T10:58:23;4.38;;;0.70;;
31676;SDS011;18385;51.572;6.578;2024-03-23T11:01:11;6.93;;;0.85;;
31676;SDS011;18385;51.572;6.578;2024-03-23T11:03:38;6.78;;;0.55;;
31676;SDS011;18385;51.572;6.578;2024-03-23T11:06:06;3.55;;;0.63;;
31676;SDS011;18385;51.572;6.578;2024-03-23T11:08:37;6.13;;;0.80;;
31676;SDS011;18385;51.572;6.578;2024-03-23T11:11:21;9.57;;;0.60;;
31676;SDS011;18385;51.572;6.578;2024-03-23T11:13:50;4.63;;;0.60;;
31676;SDS011;18385;51.572;6.578;2024-03-23T11:16:17;10.25;;;1.50;;
31676;SDS011;18385;51.572;6.578;2024-03-23T11:18:53;5.88;;;1.02;;
31676;SDS011;18385;51.572;6.578;2024-03-23T11:24:17;3.78;;;0.65;;
31676;SDS011;18385;51.572;6.578;2024-03-23T11:26:43;5.38;;;0.68;;
31676;SDS011;18385;51.572;6.578;2024-03-23T11:29:09;4.68;;;1.38;;
31676;SDS011;18385;51.572;6.578;2024-03-23T11:31:45;6.53;;;0.60;;
31676;SDS011;18385;51.572;6.578;2024-03-23T11:34:18;5.47;;;1.13;;
31676;SDS011;18385;51.572;6.578;2024-03-23T11:36:44;2.03;;;0.40;;
31676;SDS011;18385;51.572;6.578;2024-03-23T11:39:14;4.20;;;0.77;;
31676;SDS011;18385;51.572;6.578;2024-03-23T11:44:17;3.53;;;0.63;;
31676;SDS011;18385;51.572;6.578;2024-03-23T11:46:43;6.88;;;0.68;;
31676;SDS011;18385;51.572;6.578;2024-03-23T11:51:47;3.55;;;1.08;;
31676;SDS011;18385;51.572;6.578;2024-03-23T11:54:13;5.18;;;0.88;;
31676;SDS011;18385;51.572;6.578;2024-03-23T11:56:39;3.92;;;0.80;;
31676;SDS011;18385;51.572;6.578;2024-03-23T11:59:06;3.70;;;0.75;;
31676;SDS011;18385;51.572;6.578;2024-03-23T12:01:31;2.10;;;0.77;;
31676;SDS011;18385;51.572;6.578;2024-03-23T12:03:57;2.42;;;0.30;;
31676;SDS011;18385;51.572;6.578;2024-03-23T12:06:23;2.05;;;0.30;;
31676;SDS011;18385;51.572;6.578;2024-03-23T12:08:48;3.22;;;0.43;;
31676;SDS011;18385;51.572;6.578;2024-03-23T12:11:17;2.33;;;0.22;;
31676;SDS011;18385;51.572;6.578;2024-03-23T12:13:44;7.13;;;1.92;;
31676;SDS011;18385;51.572;6.578;2024-03-23T12:16:19;2.97;;;0.47;;
31676;SDS011;18385;51.572;6.578;2024-03-23T12:18:47;3.08;;;0.73;;
31676;SDS011;18385;51.572;6.578;2024-03-23T12:21:14;3.38;;;0.47;;
31676;SDS011;18385;51.572;6.578;2024-03-23T12:23:40;3.38;;;0.47;;
31676;SDS011;18385;51.572;6.578;2024-03-23T12:26:13;2.03;;;0.45;;
31676;SDS011;18385;51.572;6.578;2024-03-23T12:28:39;3.30;;;0.63;;
31676;SDS011;18385;51.572;6.578;2024-03-23T12:31:05;1.42;;;0.40;;
31676;SDS011;18385;51.572;6.578;2024-03-23T12:33:31;3.08;;;0.60;;
31676;SDS011;18385;51.572;6.578;2024-03-23T12:35:57;3.17;;;1.05;;
31676;SDS011;18385;51.572;6.578;2024-03-23T12:38:23;1.98;;;0.50;;
31676;SDS011;18385;51.572;6.578;2024-03-23T12:40:49;0.75;;;0.22;;
31676;SDS011;18385;51.572;6.578;2024-03-23T12:43:16;1.55;;;0.17;;
31676;SDS011;18385;51.572;6.578;2024-03-23T12:45:46;0.80;;;0.10;;
31676;SDS011;18385;51.572;6.578;2024-03-23T12:48:12;5.07;;;0.85;;
31676;SDS011;18385;51.572;6.578;2024-03-23T12:50:38;1.77;;;0.50;;
31676;SDS011;18385;51.572;6.578;2024-03-23T12:53:04;1.55;;;0.20;;
31676;SDS011;18385;51.572;6.578;2024-03-23T12:55:34;2.20;;;1.02;;
31676;SDS011;18385;51.572;6.578;2024-03-23T12:58:01;4.30;;;0.50;;
31676;SDS011;18385;51.572;6.578;2024-03-23T13:00:26;3.38;;;0.55;;
31676;SDS011;18385;51.572;6.578;2024-03-23T13:02:52;3.90;;;0.63;;
31676;SDS011;18385;51.572;6.578;2024-03-23T13:05:18;2.25;;;0.35;;
31676;SDS011;18385;51.572;6.578;2024-03-23T13:07:44;3.92;;;0.45;;
31676;SDS011;18385;51.572;6.578;2024-03-23T13:10:09;3.30;;;0.40;;
31676;SDS011;18385;51.572;6.578;2024-03-23T13:12:35;3.53;;;0.60;;
31676;SDS011;18385;51.572;6.578;2024-03-23T13:15:01;5.05;;;0.35;;
31676;SDS011;18385;51.572;6.578;2024-03-23T13:17:27;2.03;;;0.55;;
31676;SDS011;18385;51.572;6.578;2024-03-23T13:19:53;4.00;;;0.47;;
31676;SDS011;18385;51.572;6.578;2024-03-23T13:22:20;1.55;;;0.43;;
31676;SDS011;18385;51.572;6.578;2024-03-23T13:24:46;3.47;;;0.77;;
31676;SDS011;18385;51.572;6.578;2024-03-23T13:27:12;2.20;;;0.70;;
31676;SDS011;18385;51.572;6.578;2024-03-23T13:29:38;5.28;;;0.50;;
31676;SDS011;18385;51.572;6.578;2024-03-23T13:32:04;4.78;;;0.65;;
31676;SDS011;18385;51.572;6.578;2024-03-23T13:34:31;4.80;;;0.95;;
31676;SDS011;18385;51.572;6.578;2024-03-23T13:36:56;5.43;;;0.88;;
31676;SDS011;18385;51.572;6.578;2024-03-23T13:39:23;3.78;;;0.80;;
31676;SDS011;18385;51.572;6.578;2024-03-23T13:41:50;4.55;;;0.50;;
31676;SDS011;18385;51.572;6.578;2024-03-23T13:44:16;1.90;;;0.38;;
31676;SDS011;18385;51.572;6.578;2024-03-23T13:46:42;3.15;;;0.50;;
31676;SDS011;18385;51.572;6.578;2024-03-23T13:49:10;4.32;;;0.70;;
31676;SDS011;18385;51.572;6.578;2024-03-23T13:51:49;5.35;;;1.48;;
31676;SDS011;18385;51.572;6.578;2024-03-23T13:54:15;2.65;;;0.57;;
31676;SDS011;18385;51.572;6.578;2024-03-23T13:56:41;2.78;;;0.30;;
31676;SDS011;18385;51.572;6.578;2024-03-23T13:59:06;5.28;;;0.40;;
31676;SDS011;18385;51.572;6.578;2024-03-23T14:01:32;5.07;;;0.47;;
31676;SDS011;18385;51.572;6.578;2024-03-23T14:03:58;3.88;;;0.35;;
31676;SDS011;18385;51.572;6.578;2024-03-23T14:06:23;3.83;;;0.32;;
31676;SDS011;18385;51.572;6.578;2024-03-23T14:08:49;2.58;;;0.40;;
31676;SDS011;18385;51.572;6.578;2024-03-23T14:11:17;1.52;;;0.47;;
31676;SDS011;18385;51.572;6.578;2024-03-23T14:13:43;3.58;;;0.45;;
31676;SDS011;18385;51.572;6.578;2024-03-23T14:16:09;1.38;;;0.40;;
31676;SDS011;18385;51.572;6.578;2024-03-23T14:18:35;1.83;;;0.28;;
31676;SDS011;18385;51.572;6.578;2024-03-23T14:21:02;3.90;;;0.75;;
31676;SDS011;18385;51.572;6.578;2024-03-23T14:23:28;3.40;;;0.50;;
31676;SDS011;18385;51.572;6.578;2024-03-23T14:25:58;3.63;;;0.20;;
31676;SDS011;18385;51.572;6.578;2024-03-23T14:28:24;1.63;;;0.25;;
31676;SDS011;18385;51.572;6.578;2024-03-23T14:30:50;1.50;;;0.30;;
31676;SDS011;18385;51.572;6.578;2024-03-23T14:33:16;1.92;;;0.35;;
31676;SDS011;18385;51.572;6.578;2024-03-23T14:35:43;3.00;;;0.45;;
31676;SDS011;18385;51.572;6.578;2024-03-23T14:38:09;5.07;;;0.65;;
31676;SDS011;18385;51.572;6.578;2024-03-23T14:40:34;3.58;;;0.50;;
31676;SDS011;18385;51.572;6.578;2024-03-23T14:43:01;14.73;;;1.60;;
31676;SDS011;18385;51.572;6.578;2024-03-23T14:45:27;3.13;;;0.32;;
31676;SDS011;18385;51.572;6.578;2024-03-23T14:47:53;6.18;;;0.43;;
31676;SDS011;18385;51.572;6.578;2024-03-23T14:50:19;3.38;;;0.40;;
31676;SDS011;18385;51.572;6.578;2024-03-23T14:52:46;2.60;;;0.32;;
31676;SDS011;18385;51.572;6.578;2024-03-23T14:55:13;4.10;;;0.60;;
31676;SDS011;18385;51.572;6.578;2024-03-23T14:57:38;0.70;;;0.20;;
31676;SDS011;18385;51.572;6.578;2024-03-23T15:00:08;2.30;;;0.20;;
31676;SDS011;18385;51.572;6.578;2024-03-23T15:02:39;3.35;;;0.40;;
31676;SDS011;18385;51.572;6.578;2024-03-23T15:05:05;2.78;;;0.40;;
31676;SDS011;18385;51.572;6.578;2024-03-23T15:07:35;3.17;;;0.32;;
31676;SDS011;18385;51.572;6.578;2024-03-23T15:10:03;4.78;;;0.50;;
31676;SDS011;18385;51.572;6.578;2024-03-23T15:12:33;4.43;;;0.30;;
31676;SDS011;18385;51.572;6.578;2024-03-23T15:14:59;4.43;;;0.40;;
31676;SDS011;18385;51.572;6.578;2024-03-23T15:17:25;4.95;;;1.40;;
31676;SDS011;18385;51.572;6.578;2024-03-23T15:19:51;2.75;;;0.50;;
31676;SDS011;18385;51.572;6.578;2024-03-23T15:22:20;2.72;;;0.47;;
31676;SDS011;18385;51.572;6.578;2024-03-23T15:24:47;1.58;;;0.47;;
31676;SDS011;18385;51.572;6.578;2024-03-23T15:27:12;1.98;;;0.45;;
31676;SDS011;18385;51.572;6.578;2024-03-23T15:29:38;5.93;;;0.90;;
31676;SDS011;18385;51.572;6.578;2024-03-23T15:32:04;2.88;;;0.60;;
31676;SDS011;18385;51.572;6.578;2024-03-23T15:34:30;5.50;;;0.80;;
31676;SDS011;18385;51.572;6.578;2024-03-23T15:36:55;3.90;;;0.35;;
31676;SDS011;18385;51.572;6.578;2024-03-23T15:39:21;2.35;;;0.30;;
31676;SDS011;18385;51.572;6.578;2024-03-23T15:41:47;3.40;;;0.63;;
31676;SDS011;18385;51.572;6.578;2024-03-23T15:44:13;2.78;;;0.38;;
31676;SDS011;18385;51.572;6.578;2024-03-23T15:46:39;2.92;;;0.40;;
31676;SDS011;18385;51.572;6.578;2024-03-23T15:49:05;3.15;;;0.40;;